sensor_id;sensor_type;location;lat;lon;timestamp;temperature;humidity
14301;DHT22;7234;59.306;18.024;2023-09-07T18:20:22;17.60;99.90
14301;DHT22;7234;59.306;18.024;2023-09-07T18:22:55;17.50;99.90
14301;DHT22;7234;59.306;18.024;2023-09-07T18:25:26;17.50;99.90
14301;DHT22;7234;59.306;18.024;2023-09-07T18:27:53;17.50;99.90
14301;DHT22;7234;59.306;18.024;2023-09-07T18:30:22;17.50;99.90
14301;DHT22;7234;59.306;18.024;2023-09-07T18:32:57;17.50;99.90
14301;DHT22;7234;59.306;18.024;2023-09-07T18:52:52;17.20;99.90
14301;DHT22;7234;59.306;18.024;2023-09-07T18:55:25;17.30;99.90
14301;DHT22;7234;59.306;18.024;2023-09-07T18:58:01;17.30;99.90
14301;DHT22;7234;59.306;18.024;2023-09-07T19:00:49;17.20;99.90
14301;DHT22;7234;59.306;18.024;2023-09-07T19:03:20;17.20;99.90
14301;DHT22;7234;59.306;18.024;2023-09-07T19:05:56;17.10;99.90
14301;DHT22;7234;59.306;18.024;2023-09-07T19:08:29;17.00;99.90
14301;DHT22;7234;59.306;18.024;2023-09-07T19:11:01;17.10;99.90
14301;DHT22;7234;59.306;18.024;2023-09-07T19:13:31;17.00;99.90
14301;DHT22;7234;59.306;18.024;2023-09-07T19:15:59;17.00;99.90
14301;DHT22;7234;59.306;18.024;2023-09-07T19:18:33;17.00;99.90
14301;DHT22;7234;59.306;18.024;2023-09-07T19:21:03;16.90;99.90
14301;DHT22;7234;59.306;18.024;2023-09-07T19:23:32;17.00;99.90
14301;DHT22;7234;59.306;18.024;2023-09-07T19:25:59;16.90;99.90
14301;DHT22;7234;59.306;18.024;2023-09-07T19:28:26;16.90;99.90
14301;DHT22;7234;59.306;18.024;2023-09-07T19:30:53;17.00;99.90
14301;DHT22;7234;59.306;18.024;2023-09-07T19:33:20;16.90;99.90
14301;DHT22;7234;59.306;18.024;2023-09-07T19:35:47;17.00;99.90
14301;DHT22;7234;59.306;18.024;2023-09-07T19:38:16;16.90;99.90
14301;DHT22;7234;59.306;18.024;2023-09-07T19:40:45;16.90;99.90
14301;DHT22;7234;59.306;18.024;2023-09-07T19:43:12;17.00;99.90
14301;DHT22;7234;59.306;18.024;2023-09-07T19:45:44;17.00;99.90
14301;DHT22;7234;59.306;18.024;2023-09-07T19:48:11;17.00;99.90
14301;DHT22;7234;59.306;18.024;2023-09-07T19:50:38;16.90;99.90
14301;DHT22;7234;59.306;18.024;2023-09-07T19:53:05;16.90;99.90
14301;DHT22;7234;59.306;18.024;2023-09-07T19:55:32;16.90;99.90
14301;DHT22;7234;59.306;18.024;2023-09-07T19:58:00;16.90;99.90
14301;DHT22;7234;59.306;18.024;2023-09-07T20:00:27;16.90;99.90
14301;DHT22;7234;59.306;18.024;2023-09-07T20:02:57;16.90;99.90
14301;DHT22;7234;59.306;18.024;2023-09-07T20:05:24;16.80;99.90
14301;DHT22;7234;59.306;18.024;2023-09-07T20:07:51;16.80;99.90
14301;DHT22;7234;59.306;18.024;2023-09-07T20:10:19;16.70;99.90
14301;DHT22;7234;59.306;18.024;2023-09-07T20:12:52;16.70;99.90
14301;DHT22;7234;59.306;18.024;2023-09-07T20:15:21;16.70;99.90
14301;DHT22;7234;59.306;18.024;2023-09-07T20:17:48;16.70;99.90
14301;DHT22;7234;59.306;18.024;2023-09-07T20:20:20;16.80;99.90
14301;DHT22;7234;59.306;18.024;2023-09-07T20:22:48;16.80;99.90
